DTNH

Enfidha - Hammamet International Airport

Enfidha, Tunisia
METAR DTNH 190900Z 23006KT 190V260 9999 FEW026 29/20 Q1018
Observed Flight Rules
Sep-19 @ 09:00 UTC (33 minutes ago) Visual Flight Rules
Wind Visibility Clouds
230° at 6 knots 10,000+ meters
  • Few at 2,600' AGL
Temperatures Readings
Current 29°C / 84°F
Dewpoint 20°C / 68°F
Humidity 58%
Altimeter 30.06" Hg
Pressure 1018 hPa
Elevation 2
METAR DTNH 190900Z 23006KT 190V260 9999 FEW026 29/20 Q1018
Observed Flight Rules
Sep-19 @ 09:00 UTC
(33 minutes ago)
VFR
Wind Visibility
230° at 6 knots 10,000+ meters
Clouds
  • Few at 2,600' AGL
Temperature Dewpoint
29°C / 84°F 20°C / 68°F
Humidity Altimeter Pressure
58% 30.06" Hg 1018 hPa